Strona główna
METAR-TAF:

METAR-TAF

Lotnisko :

Nowy Jork, Nowy Jork, Stany Zjednoczone

Szerokość geograficzna: 40-42-04N, Długość geograficzna: 074-00-32W, wysokość: 2 m

Aktualna obserwacja pogody

Raport powstał 22 minut temu, godzina 21:56 UTC
Wiatr 7 kt od południowo-południowy zachód
Temperatura 5°C
Wilgotność 60%
Ciśnienie 1031 hPa
bezchmurnie

METAR: KJRB 082156Z AUTO 20007KT CLR 05/M02 A3044 RMK AO2 SLP307 T00501017 PWINO

czas: 17:18 (22:18 UTC)


TAF: brakujący

Obserwacja i prognoza pogody dla ponad 4000 lotnisk (raport METAR i TAF).

Dostępne stacje oznaczono żółtymi i czerwonymi punktami na mapie.

Najedź kursorem aby zobaczyć nazwę stacji.

Kliknij aby zobaczyć obserwacje i prognozy pogody.

Aby zmienić mapę: kliknij na zielony przycisk z czarnym krzyżykiem, aby powiększyć; na zielony przycisk z myślnikiem, aby pomniejszyć; na zielone strzałki, aby przejść do map sąsiednich.


METAR-TAF: